Time;durP1;ratioP1;P1;durP2;ratioP2;P2;SDS_P1;SDS_P2;PMS_P1;PMS_P2;Temp;Humidity;BMP_temperature;BMP_pressure;BME280_temperature;BME280_humidity;BME280_pressure;Samples;Min_cycle;Max_cycle;Signal;HPM_P1;HPM_P2
2021/01/20 00:00:20;;;;;;;18.30;16.30;;;8.20;99.90;;;;;;5011552;28;20596;-49
2021/01/20 00:02:47;;;;;;;17.27;15.63;;;8.10;99.90;;;;;;5010758;28;20302;-50
2021/01/20 00:05:15;;;;;;;18.20;15.47;;;8.10;99.90;;;;;;5010405;28;20287;-49
2021/01/20 00:07:44;;;;;;;19.23;17.13;;;8.20;99.90;;;;;;5005213;28;20257;-49
2021/01/20 00:10:13;;;;;;;19.10;17.10;;;8.10;99.90;;;;;;5014783;28;20287;-50
2021/01/20 00:12:40;;;;;;;20.87;18.67;;;8.10;99.90;;;;;;5025240;28;20240;-50
2021/01/20 00:15:09;;;;;;;19.50;17.60;;;8.10;99.90;;;;;;5029740;28;20290;-50
2021/01/20 00:17:36;;;;;;;19.10;17.07;;;8.10;99.90;;;;;;5030401;28;20315;-50
2021/01/20 00:20:06;;;;;;;19.70;16.87;;;8.10;99.90;;;;;;5023181;28;20277;-50
2021/01/20 00:22:33;;;;;;;18.10;15.77;;;8.00;99.90;;;;;;5010188;28;20260;-50
2021/01/20 00:25:01;;;;;;;18.13;15.50;;;8.00;99.90;;;;;;5008778;28;20282;-49
2021/01/20 00:27:29;;;;;;;17.43;15.67;;;8.00;99.90;;;;;;5010675;28;20233;-49
2021/01/20 00:29:56;;;;;;;17.60;15.63;;;8.00;99.90;;;;;;5010768;28;20286;-50
2021/01/20 00:32:23;;;;;;;18.60;16.40;;;7.90;99.90;;;;;;5010421;28;20241;-49
2021/01/20 00:34:51;;;;;;;21.17;17.30;;;7.80;99.90;;;;;;5009531;28;20225;-49
2021/01/20 00:37:18;;;;;;;21.73;18.17;;;7.80;99.90;;;;;;5010315;28;20253;-50
2021/01/20 00:39:45;;;;;;;18.83;16.73;;;7.80;99.90;;;;;;5010571;28;20253;-50
2021/01/20 00:42:13;;;;;;;20.43;17.73;;;7.70;99.90;;;;;;5010829;28;20295;-50
2021/01/20 00:44:41;;;;;;;19.97;17.00;;;7.80;99.90;;;;;;5009683;28;20248;-49
2021/01/20 00:47:09;;;;;;;19.77;17.07;;;7.70;99.90;;;;;;5009872;28;20260;-50
2021/01/20 00:49:37;;;;;;;21.37;17.30;;;7.60;99.90;;;;;;5010387;28;20236;-49
2021/01/20 00:52:04;;;;;;;21.40;18.60;;;7.60;99.90;;;;;;5010241;28;20249;-49
2021/01/20 00:54:32;;;;;;;21.10;18.20;;;7.60;99.90;;;;;;4994804;28;20693;-50
2021/01/20 00:56:59;;;;;;;23.07;19.63;;;7.60;99.90;;;;;;5004923;28;20222;-49
2021/01/20 00:59:27;;;;;;;25.47;20.10;;;7.50;99.90;;;;;;4990352;28;20265;-50
2021/01/20 01:01:57;;;;;;;24.40;19.33;;;7.50;99.90;;;;;;4990474;28;20240;-49
2021/01/20 01:04:35;;;;;;;24.30;20.13;;;7.50;99.90;;;;;;4996210;28;20720;-50
2021/01/20 01:07:03;;;;;;;25.23;21.67;;;7.50;99.90;;;;;;5021120;28;20229;-50
2021/01/20 01:09:34;;;;;;;25.70;19.93;;;7.50;99.90;;;;;;5011870;28;20244;-50
2021/01/20 01:12:02;;;;;;;27.47;21.20;;;7.50;99.90;;;;;;5030011;28;20743;-50
2021/01/20 01:14:31;;;;;;;24.63;20.20;;;7.50;99.90;;;;;;5007708;28;20233;-50
2021/01/20 01:17:21;;;;;;;25.77;19.87;;;7.50;99.90;;;;;;5009681;28;20642;-49
2021/01/20 01:19:54;;;;;;;25.10;20.53;;;7.50;99.90;;;;;;5024676;28;20237;-50
2021/01/20 01:22:21;;;;;;;25.30;21.20;;;7.40;99.90;;;;;;5009189;28;20233;-49
2021/01/20 01:24:50;;;;;;;26.70;20.93;;;7.40;99.90;;;;;;5013620;28;20240;-50
2021/01/20 01:27:18;;;;;;;28.03;21.63;;;7.40;99.90;;;;;;5007635;28;20284;-50
2021/01/20 01:29:47;;;;;;;25.87;20.50;;;7.30;99.90;;;;;;5024498;28;20307;-50
2021/01/20 01:32:24;;;;;;;26.63;21.03;;;7.30;99.90;;;;;;5007745;28;20287;-50
2021/01/20 01:34:53;;;;;;;26.33;21.23;;;7.30;99.90;;;;;;5006815;28;20664;-51
2021/01/20 01:37:20;;;;;;;23.13;20.43;;;7.30;99.90;;;;;;5011561;28;20265;-50
2021/01/20 01:40:08;;;;;;;28.40;21.43;;;7.30;99.90;;;;;;5009186;28;20239;-50
2021/01/20 01:42:56;;;;;;;26.50;22.20;;;7.30;99.90;;;;;;5008908;28;20298;-49
2021/01/20 01:45:26;;;;;;;25.23;21.00;;;7.20;99.90;;;;;;5008779;28;20218;-49
2021/01/20 01:47:53;;;;;;;28.57;20.87;;;7.20;99.90;;;;;;5024064;28;20333;-49
2021/01/20 01:50:21;;;;;;;24.47;19.47;;;7.20;99.90;;;;;;5024025;28;20287;-50
2021/01/20 01:52:49;;;;;;;24.03;20.20;;;7.20;99.90;;;;;;5009060;28;20245;-50
2021/01/20 01:55:36;;;;;;;25.50;21.67;;;7.20;99.90;;;;;;4988242;28;20263;-50
2021/01/20 01:58:13;;;;;;;25.97;21.20;;;7.20;99.90;;;;;;5004019;28;20272;-49
2021/01/20 02:00:45;;;;;;;26.47;21.80;;;7.10;99.90;;;;;;4990175;28;20261;-50
2021/01/20 02:03:26;;;;;;;27.97;21.83;;;7.10;99.90;;;;;;5007338;28;20228;-50
2021/01/20 02:05:55;;;;;;;27.30;22.30;;;7.10;99.90;;;;;;5010694;28;20732;-50
2021/01/20 02:08:23;;;;;;;26.50;21.90;;;7.10;99.90;;;;;;5026114;28;20271;-50
2021/01/20 02:11:25;;;;;;;26.03;22.07;;;7.10;99.90;;;;;;5043807;28;20759;-50
2021/01/20 02:14:03;;;;;;;28.17;22.77;;;7.00;99.90;;;;;;5027878;28;20290;-49
2021/01/20 02:17:07;;;;;;;27.13;22.23;;;7.00;99.90;;;;;;5026298;28;20607;-50
2021/01/20 02:20:34;;;;;;;26.40;21.23;;;7.00;99.90;;;;;;5026984;28;20240;-50
2021/01/20 02:23:07;;;;;;;29.40;21.87;;;7.00;99.90;;;;;;5018689;28;20804;-50
2021/01/20 02:26:28;;;;;;;27.20;22.23;;;7.00;99.90;;;;;;5006101;28;20867;-50
2021/01/20 02:29:28;;;;;;;26.03;22.07;;;7.00;99.90;;;;;;5010072;28;20569;-50
2021/01/20 02:32:18;;;;;;;29.40;23.23;;;6.90;99.90;;;;;;5001563;28;20472;-50
2021/01/20 02:34:49;;;;;;;27.73;20.97;;;7.00;99.90;;;;;;4986523;28;20976;-50
2021/01/20 02:37:18;;;;;;;28.63;22.53;;;6.90;99.90;;;;;;4987176;28;20233;-50
2021/01/20 02:40:14;;;;;;;24.80;21.70;;;6.90;99.90;;;;;;4987344;28;20229;-51
2021/01/20 02:42:58;;;;;;;28.93;22.90;;;6.90;99.90;;;;;;5003019;28;20234;-50
2021/01/20 02:45:35;;;;;;;27.10;24.20;;;6.90;99.90;;;;;;5002703;28;20720;-50
2021/01/20 02:48:04;;;;;;;26.63;23.60;;;6.80;99.90;;;;;;4987159;28;20240;-50
2021/01/20 02:50:32;;;;;;;29.70;24.30;;;6.90;99.90;;;;;;4988889;28;20265;-49
2021/01/20 02:53:06;;;;;;;33.20;26.90;;;6.90;99.90;;;;;;5005147;28;20962;-50
2021/01/20 02:55:57;;;;;;;32.70;26.20;;;6.80;99.90;;;;;;5007176;28;20723;-49
2021/01/20 02:58:47;;;;;;;32.63;26.43;;;6.80;99.90;;;;;;5009928;28;20243;-50
2021/01/20 03:01:38;;;;;;;30.60;26.03;;;6.80;99.90;;;;;;5007458;28;20597;-49
2021/01/20 03:04:08;;;;;;;34.40;26.93;;;6.70;99.90;;;;;;5014805;28;20271;-50
2021/01/20 03:06:37;;;;;;;32.00;26.87;;;6.90;99.90;;;;;;5027275;28;20622;-50
2021/01/20 03:09:05;;;;;;;34.93;29.10;;;6.80;99.90;;;;;;5027739;28;20966;-49
2021/01/20 03:11:32;;;;;;;33.13;28.43;;;6.70;99.90;;;;;;5027246;28;20331;-49
2021/01/20 03:14:00;;;;;;;32.97;28.73;;;6.70;99.90;;;;;;5009578;28;20720;-51
2021/01/20 03:16:30;;;;;;;35.10;28.33;;;6.70;99.90;;;;;;5007457;28;20237;-50
2021/01/20 03:18:58;;;;;;;34.13;27.80;;;6.70;99.90;;;;;;5008161;28;20316;-50
2021/01/20 03:21:26;;;;;;;32.10;28.47;;;6.70;99.90;;;;;;5010608;28;20259;-51
2021/01/20 03:23:53;;;;;;;35.37;28.30;;;6.70;99.90;;;;;;5010764;28;20240;-50
2021/01/20 03:26:20;;;;;;;34.13;28.00;;;6.70;99.90;;;;;;5011335;28;20241;-50
2021/01/20 03:28:47;;;;;;;32.80;25.97;;;6.70;99.90;;;;;;5011452;28;20708;-50
2021/01/20 03:31:15;;;;;;;34.33;27.83;;;6.60;99.90;;;;;;5012171;28;20257;-51
2021/01/20 03:33:42;;;;;;;35.47;28.37;;;6.60;99.90;;;;;;5011467;28;20233;-50
2021/01/20 03:36:10;;;;;;;37.90;28.67;;;6.60;99.90;;;;;;5011008;28;20233;-50
2021/01/20 03:38:38;;;;;;;33.13;27.70;;;6.60;99.90;;;;;;5014309;28;20475;-50
2021/01/20 03:41:05;;;;;;;34.03;27.23;;;6.60;99.90;;;;;;5011909;28;20672;-50
2021/01/20 03:43:32;;;;;;;36.53;26.63;;;6.50;99.90;;;;;;5011095;28;20324;-50
2021/01/20 03:46:00;;;;;;;33.37;27.23;;;6.50;99.90;;;;;;5010815;28;20229;-49
2021/01/20 03:48:27;;;;;;;35.27;27.50;;;6.50;99.90;;;;;;5013949;28;20251;-50
2021/01/20 03:50:55;;;;;;;35.23;27.70;;;6.50;99.90;;;;;;5011390;28;20240;-50
2021/01/20 03:53:22;;;;;;;35.33;27.67;;;6.50;99.90;;;;;;5010847;28;20233;-50
2021/01/20 03:55:50;;;;;;;33.10;26.97;;;6.60;99.90;;;;;;5009240;28;20236;-51
2021/01/20 03:58:21;;;;;;;31.30;26.57;;;6.50;99.90;;;;;;5012654;28;20316;-50
2021/01/20 04:00:48;;;;;;;34.97;26.07;;;6.50;99.90;;;;;;5010734;28;20220;-51
2021/01/20 04:03:15;;;;;;;31.03;24.93;;;6.50;99.90;;;;;;5017656;28;20741;-50
2021/01/20 04:06:04;;;;;;;34.80;25.27;;;6.50;99.90;;;;;;5035001;28;20256;-51
2021/01/20 04:08:32;;;;;;;28.43;23.87;;;6.50;99.90;;;;;;5010694;28;20708;-50
2021/01/20 04:11:00;;;;;;;33.23;25.13;;;6.50;99.90;;;;;;5010916;28;20779;-49
2021/01/20 04:13:27;;;;;;;28.40;24.33;;;6.50;99.90;;;;;;5010727;28;20636;-50
2021/01/20 04:15:54;;;;;;;30.63;23.77;;;6.50;99.90;;;;;;5010244;28;20599;-51
2021/01/20 04:18:22;;;;;;;31.73;24.23;;;6.40;99.90;;;;;;5010520;28;20229;-50
2021/01/20 04:20:49;;;;;;;27.43;22.67;;;6.50;99.90;;;;;;5010119;28;20276;-49
2021/01/20 04:23:16;;;;;;;29.30;23.40;;;6.50;99.90;;;;;;5009092;28;20359;-50
2021/01/20 04:25:44;;;;;;;27.20;23.23;;;6.40;99.90;;;;;;5000583;28;20261;-50
2021/01/20 04:28:12;;;;;;;28.50;23.13;;;6.40;99.90;;;;;;5022617;28;20237;-50
2021/01/20 04:30:39;;;;;;;29.48;23.70;;;6.40;99.90;;;;;;5009917;28;20523;-49
2021/01/20 04:33:06;;;;;;;26.17;22.70;;;6.50;99.90;;;;;;5010473;28;20317;-50
2021/01/20 04:35:34;;;;;;;26.20;22.23;;;6.40;99.90;;;;;;5009508;28;20874;-49
2021/01/20 04:38:01;;;;;;;24.33;21.70;;;6.40;99.90;;;;;;5009091;28;20229;-52
2021/01/20 04:40:29;;;;;;;27.80;22.27;;;6.40;99.90;;;;;;5010521;28;20555;-49
2021/01/20 04:42:56;;;;;;;25.97;20.80;;;6.40;99.90;;;;;;5010343;28;20331;-51
2021/01/20 04:45:24;;;;;;;25.53;20.73;;;6.40;99.90;;;;;;5009899;28;20324;-51
2021/01/20 04:47:53;;;;;;;28.27;21.40;;;6.40;99.90;;;;;;5009638;28;20478;-50
2021/01/20 04:50:22;;;;;;;23.57;21.00;;;6.40;99.90;;;;;;5010067;28;20927;-49
2021/01/20 04:52:51;;;;;;;25.83;21.07;;;6.40;99.90;;;;;;5009992;28;20241;-49
2021/01/20 04:55:20;;;;;;;23.07;20.07;;;6.50;99.90;;;;;;5009468;28;20413;-49
2021/01/20 04:57:47;;;;;;;25.20;20.43;;;6.40;99.90;;;;;;5012926;28;20267;-49
2021/01/20 05:00:16;;;;;;;23.33;20.27;;;6.40;99.90;;;;;;5020823;28;20236;-49
2021/01/20 05:02:46;;;;;;;24.40;19.80;;;6.40;99.90;;;;;;5019453;28;20896;-51
2021/01/20 05:05:15;;;;;;;22.83;19.50;;;6.40;99.90;;;;;;5009494;28;20260;-49
2021/01/20 05:07:42;;;;;;;23.47;18.17;;;6.40;99.90;;;;;;5010087;28;20312;-50
2021/01/20 05:10:10;;;;;;;21.53;17.90;;;6.40;99.90;;;;;;5009574;28;20312;-50
2021/01/20 05:12:39;;;;;;;22.33;17.23;;;6.40;99.90;;;;;;5009914;28;20469;-50
2021/01/20 05:15:09;;;;;;;19.33;17.27;;;6.40;99.90;;;;;;5009062;28;20299;-50
2021/01/20 05:17:38;;;;;;;20.67;16.60;;;6.40;99.90;;;;;;5012143;28;20519;-49
2021/01/20 05:20:25;;;;;;;18.77;15.20;;;6.40;99.90;;;;;;5009819;28;20282;-50
2021/01/20 05:22:56;;;;;;;19.47;14.43;;;6.40;99.90;;;;;;5009440;28;20279;-50
2021/01/20 05:25:31;;;;;;;19.60;12.77;;;6.40;99.90;;;;;;4989170;28;20523;-49
2021/01/20 05:28:20;;;;;;;17.93;15.00;;;6.40;99.90;;;;;;4990074;28;20322;-50
2021/01/20 05:30:51;;;;;;;16.93;12.67;;;6.40;99.90;;;;;;4989914;28;20249;-49
2021/01/20 05:33:20;;;;;;;18.87;13.80;;;6.40;99.90;;;;;;4990255;28;20265;-49
2021/01/20 05:36:07;;;;;;;18.23;12.93;;;6.40;99.90;;;;;;4988885;28;20485;-50
2021/01/20 05:38:36;;;;;;;21.83;14.27;;;6.40;99.90;;;;;;4990231;28;20524;-50
2021/01/20 05:41:21;;;;;;;16.83;13.33;;;6.40;99.90;;;;;;4989986;28;20533;-50
2021/01/20 05:43:51;;;;;;;17.67;11.97;;;6.50;99.90;;;;;;5000365;28;20571;-49
2021/01/20 05:46:31;;;;;;;15.10;11.67;;;6.40;99.90;;;;;;5008462;28;20264;-50
2021/01/20 05:48:59;;;;;;;17.63;12.57;;;6.40;99.90;;;;;;5009418;28;20290;-50
2021/01/20 05:51:37;;;;;;;16.57;11.87;;;6.40;99.90;;;;;;5009697;28;20240;-50
2021/01/20 05:54:05;;;;;;;17.70;12.03;;;6.40;99.90;;;;;;5002588;28;20599;-50
2021/01/20 05:56:33;;;;;;;14.07;11.33;;;6.40;99.90;;;;;;5006420;28;20313;-51
2021/01/20 05:59:00;;;;;;;16.37;12.23;;;6.30;99.90;;;;;;5011531;28;20311;-49
2021/01/20 06:01:31;;;;;;;17.90;12.13;;;6.30;99.90;;;;;;5000963;28;20491;-49
2021/01/20 06:04:01;;;;;;;20.63;12.13;;;6.30;99.90;;;;;;5006806;28;20921;-49
2021/01/20 06:06:29;;;;;;;16.87;12.90;;;6.30;99.90;;;;;;4987777;28;20324;-50
2021/01/20 06:08:58;;;;;;;17.60;12.93;;;6.40;99.90;;;;;;4993656;28;20866;-49
2021/01/20 06:11:27;;;;;;;19.87;12.33;;;6.30;99.90;;;;;;4992865;28;20694;-49
2021/01/20 06:13:55;;;;;;;17.27;13.17;;;6.40;99.90;;;;;;5000943;28;20284;-49
2021/01/20 06:16:29;;;;;;;17.77;12.53;;;6.40;99.90;;;;;;4993001;28;20575;-50
2021/01/20 06:19:08;;;;;;;21.27;13.03;;;6.40;99.90;;;;;;4989742;28;20296;-49
2021/01/20 06:21:37;;;;;;;19.20;12.93;;;6.30;99.90;;;;;;5006064;28;20243;-49
2021/01/20 06:24:13;;;;;;;17.07;13.53;;;6.40;99.90;;;;;;4988042;28;20492;-50
2021/01/20 06:26:50;;;;;;;16.53;13.33;;;6.30;99.90;;;;;;4988428;28;20317;-49
2021/01/20 06:29:24;;;;;;;18.73;14.07;;;6.30;99.90;;;;;;5006000;28;20886;-49
2021/01/20 06:31:54;;;;;;;17.30;13.47;;;6.30;99.90;;;;;;4993097;28;20476;-49
2021/01/20 06:34:22;;;;;;;16.50;13.57;;;6.30;99.90;;;;;;4991770;28;20243;-49
2021/01/20 06:36:50;;;;;;;20.47;13.80;;;6.20;99.90;;;;;;5008181;28;20775;-49
2021/01/20 06:39:35;;;;;;;22.97;14.53;;;6.20;99.90;;;;;;5008103;28;20467;-50
2021/01/20 06:42:03;;;;;;;18.90;14.67;;;6.30;99.90;;;;;;4996814;28;20256;-49
2021/01/20 06:44:30;;;;;;;22.47;15.37;;;6.20;99.90;;;;;;5001868;28;20327;-51
2021/01/20 06:47:01;;;;;;;18.27;14.03;;;6.20;99.90;;;;;;5000659;28;20575;-49
2021/01/20 06:49:31;;;;;;;21.67;14.47;;;6.20;99.90;;;;;;5011189;28;20237;-50
2021/01/20 06:52:11;;;;;;;21.07;14.87;;;6.30;99.90;;;;;;5004666;28;20712;-49
2021/01/20 06:54:41;;;;;;;21.53;15.17;;;6.20;99.90;;;;;;5007531;28;20708;-49
2021/01/20 06:57:29;;;;;;;20.13;14.67;;;6.20;99.90;;;;;;5024162;28;20475;-50
2021/01/20 07:00:15;;;;;;;22.87;14.70;;;6.20;99.90;;;;;;5008315;28;20569;-50
2021/01/20 07:03:02;;;;;;;18.67;14.50;;;6.20;99.90;;;;;;5006594;28;20475;-49
2021/01/20 07:05:36;;;;;;;18.70;14.37;;;6.20;99.90;;;;;;5003803;28;20527;-50
2021/01/20 07:08:11;;;;;;;21.03;15.33;;;6.20;99.90;;;;;;5005273;28;20240;-49
2021/01/20 07:11:05;;;;;;;20.13;15.37;;;6.20;99.90;;;;;;5007112;28;20525;-49
2021/01/20 07:13:39;;;;;;;22.50;15.73;;;6.10;99.90;;;;;;5024256;28;20270;-49
2021/01/20 07:16:12;;;;;;;21.73;15.93;;;6.10;99.90;;;;;;5009205;28;20516;-49
2021/01/20 07:18:42;;;;;;;24.37;16.30;;;6.10;99.90;;;;;;5005582;28;20241;-50
2021/01/20 07:21:10;;;;;;;21.53;15.77;;;6.10;99.90;;;;;;5005179;28;20559;-50
2021/01/20 07:23:40;;;;;;;20.97;16.73;;;6.20;99.90;;;;;;5004682;28;20479;-49
2021/01/20 07:26:08;;;;;;;21.47;15.93;;;6.10;99.90;;;;;;5003866;28;20709;-50
2021/01/20 07:28:38;;;;;;;20.73;16.13;;;6.10;99.90;;;;;;5005136;28;20282;-50
2021/01/20 07:31:09;;;;;;;20.93;15.83;;;6.10;99.90;;;;;;5012839;28;20244;-50
2021/01/20 07:33:38;;;;;;;23.40;16.97;;;6.20;99.90;;;;;;5024398;28;20483;-51
2021/01/20 07:36:16;;;;;;;22.70;15.57;;;6.20;99.90;;;;;;5016344;28;20268;-50
2021/01/20 07:38:47;;;;;;;20.73;16.00;;;6.20;99.90;;;;;;5004506;28;20498;-50
2021/01/20 07:41:25;;;;;;;24.33;17.30;;;6.20;99.90;;;;;;5005149;28;20480;-50
2021/01/20 07:44:06;;;;;;;18.83;16.00;;;6.20;99.90;;;;;;5004435;28;20232;-50
2021/01/20 07:46:36;;;;;;;20.33;15.07;;;6.20;99.90;;;;;;5005179;28;20486;-50
2021/01/20 07:49:14;;;;;;;18.33;15.60;;;6.20;99.90;;;;;;5010589;28;20483;-50
2021/01/20 07:51:41;;;;;;;21.40;15.93;;;6.20;99.90;;;;;;5011782;28;20514;-50
2021/01/20 07:54:10;;;;;;;20.20;15.17;;;6.20;99.90;;;;;;5024278;28;20998;-51
2021/01/20 07:56:37;;;;;;;18.37;14.20;;;6.20;99.90;;;;;;5024160;28;21052;-50
2021/01/20 07:59:16;;;;;;;18.17;13.97;;;6.20;99.90;;;;;;5024591;28;20471;-50
2021/01/20 08:01:45;;;;;;;19.80;14.67;;;6.20;99.90;;;;;;5024137;28;20740;-50
2021/01/20 08:04:20;;;;;;;18.87;13.87;;;6.20;99.90;;;;;;5008305;28;20987;-50
2021/01/20 08:06:48;;;;;;;16.80;13.77;;;6.30;99.90;;;;;;5005372;28;20483;-50
2021/01/20 08:09:17;;;;;;;16.23;13.07;;;6.30;99.90;;;;;;5008587;28;20243;-50
2021/01/20 08:11:46;;;;;;;15.07;12.50;;;6.40;99.90;;;;;;5008749;28;20898;-50
2021/01/20 08:14:16;;;;;;;15.33;12.23;;;6.40;99.90;;;;;;5007358;28;21047;-50
2021/01/20 08:16:44;;;;;;;14.83;11.80;;;6.40;99.90;;;;;;5020694;28;20232;-50
2021/01/20 08:19:19;;;;;;;15.40;11.63;;;6.40;99.90;;;;;;5027400;28;20478;-50
2021/01/20 08:21:47;;;;;;;13.40;11.73;;;6.40;99.90;;;;;;5027535;28;21018;-50
2021/01/20 08:24:21;;;;;;;13.60;11.10;;;6.40;99.90;;;;;;5023192;28;20324;-50
2021/01/20 08:26:56;;;;;;;14.80;11.37;;;6.50;99.90;;;;;;5006244;28;20983;-51
2021/01/20 08:29:24;;;;;;;13.93;10.03;;;6.50;99.90;;;;;;5007187;28;20232;-50
2021/01/20 08:32:10;;;;;;;14.60;10.77;;;6.50;99.90;;;;;;5014982;28;20997;-50
2021/01/20 08:34:40;;;;;;;13.97;10.00;;;6.60;99.90;;;;;;5022888;28;20243;-50
2021/01/20 08:37:09;;;;;;;12.73;9.70;;;6.60;99.90;;;;;;5010060;28;20500;-49
2021/01/20 08:39:39;;;;;;;14.63;9.80;;;6.60;99.90;;;;;;5007657;28;20537;-50
2021/01/20 08:42:27;;;;;;;11.20;9.27;;;6.60;99.90;;;;;;5006730;28;21216;-50
2021/01/20 08:45:13;;;;;;;14.07;10.07;;;6.70;99.90;;;;;;5005450;28;20303;-50
2021/01/20 08:47:48;;;;;;;10.37;7.67;;;6.70;99.90;;;;;;5007048;28;20530;-50
2021/01/20 08:50:17;;;;;;;10.73;8.63;;;6.70;99.90;;;;;;5015708;28;20546;-50
2021/01/20 08:52:48;;;;;;;11.30;7.40;;;6.70;99.90;;;;;;5027059;28;20514;-50
2021/01/20 08:55:28;;;;;;;11.93;8.23;;;6.70;99.90;;;;;;5026373;28;20525;-52
2021/01/20 08:58:20;;;;;;;13.13;8.40;;;6.80;99.90;;;;;;5025983;28;20491;-51
2021/01/20 09:00:49;;;;;;;8.47;7.57;;;6.80;99.90;;;;;;5026483;28;21364;-50
2021/01/20 09:03:21;;;;;;;11.27;8.07;;;6.80;99.90;;;;;;5026726;28;20327;-50
2021/01/20 09:05:50;;;;;;;11.43;7.73;;;6.90;99.90;;;;;;5025799;28;20287;-50
2021/01/20 09:08:17;;;;;;;11.37;7.50;;;6.90;99.90;;;;;;5017264;28;20307;-50
2021/01/20 09:10:47;;;;;;;10.10;6.90;;;7.00;99.90;;;;;;5007273;28;20533;-50
2021/01/20 09:13:17;;;;;;;8.10;6.83;;;7.00;99.90;;;;;;5006471;28;20980;-50
2021/01/20 09:15:46;;;;;;;8.87;6.87;;;7.00;99.90;;;;;;5005826;28;20311;-50
2021/01/20 09:18:14;;;;;;;8.00;6.80;;;7.00;99.90;;;;;;5006317;28;20324;-50
2021/01/20 09:20:41;;;;;;;9.03;6.67;;;7.10;99.90;;;;;;5006467;28;20709;-51
2021/01/20 09:23:09;;;;;;;8.40;5.97;;;7.10;99.90;;;;;;5006173;28;20324;-51
2021/01/20 09:25:37;;;;;;;8.27;6.03;;;7.20;99.90;;;;;;5005460;28;20241;-51
2021/01/20 09:28:06;;;;;;;6.90;6.00;;;7.20;99.90;;;;;;5006027;28;20320;-50
2021/01/20 09:30:34;;;;;;;7.73;6.07;;;7.30;99.90;;;;;;5006018;28;20291;-50
2021/01/20 09:33:02;;;;;;;8.30;5.87;;;7.30;99.90;;;;;;5005235;28;20287;-52
2021/01/20 09:35:30;;;;;;;7.80;5.60;;;7.40;99.90;;;;;;5002012;28;20529;-50
2021/01/20 09:37:58;;;;;;;7.70;6.27;;;7.40;99.90;;;;;;4986200;28;20234;-50
2021/01/20 09:40:27;;;;;;;9.03;5.47;;;7.50;99.90;;;;;;4986649;28;20238;-50
2021/01/20 09:42:55;;;;;;;9.37;5.63;;;7.50;99.90;;;;;;5005854;28;20316;-50
2021/01/20 09:45:27;;;;;;;6.97;5.23;;;7.60;99.90;;;;;;5002602;28;20249;-51
2021/01/20 09:47:55;;;;;;;6.80;4.87;;;7.70;99.90;;;;;;5002890;28;20269;-50
2021/01/20 09:50:24;;;;;;;7.07;4.93;;;7.80;99.90;;;;;;5017838;28;20842;-50
2021/01/20 09:52:56;;;;;;;6.47;5.17;;;7.90;99.90;;;;;;4986337;28;20237;-50
2021/01/20 09:55:23;;;;;;;6.70;5.03;;;7.90;99.90;;;;;;4998498;28;20608;-51
2021/01/20 09:57:50;;;;;;;7.43;4.60;;;7.90;99.90;;;;;;5005617;28;21081;-50
2021/01/20 10:00:18;;;;;;;7.03;5.03;;;7.90;99.90;;;;;;5005825;28;20926;-50
2021/01/20 10:02:47;;;;;;;6.63;5.00;;;7.80;99.90;;;;;;5005823;28;20240;-50
2021/01/20 10:05:14;;;;;;;7.53;5.10;;;7.80;99.90;;;;;;5005652;28;20237;-49
2021/01/20 10:07:42;;;;;;;5.70;5.03;;;7.80;99.90;;;;;;5005680;28;20320;-49
2021/01/20 10:10:13;;;;;;;5.13;4.37;;;7.70;99.90;;;;;;5005880;28;20241;-49
2021/01/20 10:12:40;;;;;;;6.80;4.80;;;7.70;99.90;;;;;;5005870;28;20241;-50
2021/01/20 10:15:09;;;;;;;6.73;4.60;;;7.70;99.90;;;;;;5004897;28;20681;-49
2021/01/20 10:17:37;;;;;;;7.27;4.30;;;7.70;99.90;;;;;;5005370;28;20655;-49
2021/01/20 10:20:07;;;;;;;7.43;4.83;;;7.80;99.90;;;;;;5005289;28;20241;-50
2021/01/20 10:22:36;;;;;;;6.20;5.23;;;7.80;99.90;;;;;;5005360;28;20767;-50
2021/01/20 10:25:08;;;;;;;6.40;4.97;;;7.90;99.90;;;;;;5004916;28;20699;-50
2021/01/20 10:27:36;;;;;;;4.23;3.83;;;7.90;99.90;;;;;;5004533;28;20244;-50
2021/01/20 10:30:06;;;;;;;5.57;4.50;;;8.00;99.90;;;;;;5004851;28;20294;-50
2021/01/20 10:32:33;;;;;;;5.00;4.27;;;8.10;99.90;;;;;;5005045;28;20265;-51
2021/01/20 10:35:00;;;;;;;5.87;4.53;;;8.10;99.90;;;;;;5005000;28;20260;-49
2021/01/20 10:37:29;;;;;;;4.77;3.80;;;8.10;99.90;;;;;;5007471;28;20324;-49
2021/01/20 10:39:59;;;;;;;6.87;4.17;;;8.20;99.90;;;;;;5005452;28;20240;-50
2021/01/20 10:42:26;;;;;;;4.40;4.00;;;8.20;99.90;;;;;;5005568;28;20312;-49
2021/01/20 10:44:54;;;;;;;4.63;3.93;;;8.30;99.90;;;;;;5002446;28;20265;-50
2021/01/20 10:47:21;;;;;;;4.90;4.00;;;8.20;99.90;;;;;;5007480;28;20232;-50
2021/01/20 10:49:49;;;;;;;5.40;3.97;;;8.30;99.90;;;;;;5004585;28;20288;-50
2021/01/20 10:52:17;;;;;;;4.77;3.73;;;8.30;99.90;;;;;;5005114;28;20232;-50
2021/01/20 10:54:45;;;;;;;52.47;9.10;;;8.50;99.90;;;;;;5003961;28;20458;-49
2021/01/20 10:57:12;;;;;;;10.40;4.03;;;8.60;99.90;;;;;;5004797;28;20640;-49
2021/01/20 10:59:41;;;;;;;4.57;3.57;;;8.60;99.90;;;;;;5005714;28;20408;-49
2021/01/20 11:02:09;;;;;;;8.57;4.27;;;8.60;99.90;;;;;;5005035;28;20723;-49
2021/01/20 11:04:37;;;;;;;4.00;3.57;;;8.50;99.90;;;;;;5007031;28;20247;-51
2021/01/20 11:07:05;;;;;;;5.30;3.60;;;8.60;99.90;;;;;;5004177;28;20324;-49
2021/01/20 11:09:32;;;;;;;5.90;3.83;;;8.70;99.90;;;;;;5005527;28;20706;-49
2021/01/20 11:12:01;;;;;;;4.73;3.30;;;8.70;99.90;;;;;;5005196;28;20651;-49
2021/01/20 11:14:29;;;;;;;5.37;3.67;;;8.60;99.90;;;;;;5004580;28;20308;-51
2021/01/20 11:16:57;;;;;;;4.00;3.43;;;8.60;99.90;;;;;;5004748;28;20236;-50
2021/01/20 11:19:25;;;;;;;5.77;4.03;;;8.60;99.90;;;;;;5004981;28;20332;-49
2021/01/20 11:21:55;;;;;;;4.00;3.37;;;8.60;99.90;;;;;;5004686;28;20939;-49
2021/01/20 11:24:23;;;;;;;6.53;3.87;;;8.60;99.90;;;;;;5004402;28;20320;-50
2021/01/20 11:26:50;;;;;;;5.27;3.47;;;8.70;99.90;;;;;;5004391;28;20236;-49
2021/01/20 11:29:24;;;;;;;3.70;3.00;;;8.50;99.90;;;;;;5004928;28;20619;-49
2021/01/20 11:31:52;;;;;;;3.53;3.23;;;8.60;99.90;;;;;;5004578;28;20245;-49
2021/01/20 11:34:19;;;;;;;4.10;3.70;;;8.70;99.90;;;;;;5004556;28;20233;-49
2021/01/20 11:36:47;;;;;;;5.57;3.60;;;8.70;99.90;;;;;;4993432;28;20646;-49
2021/01/20 11:39:14;;;;;;;3.70;3.30;;;8.70;99.90;;;;;;5004517;28;20256;-49
2021/01/20 11:41:42;;;;;;;5.47;3.53;;;8.70;99.90;;;;;;5006284;28;20245;-49
2021/01/20 11:44:09;;;;;;;3.70;3.30;;;8.80;99.90;;;;;;5015996;28;20771;-49
2021/01/20 11:46:37;;;;;;;5.63;3.77;;;8.80;99.90;;;;;;5023274;28;20291;-51
2021/01/20 11:49:09;;;;;;;3.90;3.50;;;8.80;99.90;;;;;;5008810;28;20245;-50
2021/01/20 11:51:38;;;;;;;6.07;3.53;;;8.80;99.90;;;;;;5011099;28;20256;-50
2021/01/20 11:54:06;;;;;;;5.00;3.10;;;8.90;99.90;;;;;;5008220;28;21177;-49
2021/01/20 11:56:33;;;;;;;3.33;3.00;;;8.90;99.90;;;;;;5007784;28;20316;-49
2021/01/20 11:59:00;;;;;;;3.77;3.37;;;9.00;99.90;;;;;;5008136;28;20236;-49
2021/01/20 12:01:32;;;;;;;4.83;3.50;;;9.00;99.90;;;;;;5008384;28;20244;-49
2021/01/20 12:04:01;;;;;;;5.50;3.57;;;9.00;99.90;;;;;;5009059;28;20245;-49
2021/01/20 12:06:28;;;;;;;4.53;3.40;;;9.00;99.90;;;;;;5007770;28;20322;-49
2021/01/20 12:08:56;;;;;;;3.83;3.23;;;9.00;99.90;;;;;;5008193;28;20319;-49
2021/01/20 12:11:24;;;;;;;5.43;3.57;;;9.10;99.90;;;;;;5008142;28;20268;-49
2021/01/20 12:13:51;;;;;;;3.93;3.30;;;9.00;99.90;;;;;;5007296;28;20311;-49
2021/01/20 12:16:18;;;;;;;4.23;3.17;;;9.00;99.90;;;;;;5007482;28;20233;-50
2021/01/20 12:18:45;;;;;;;3.63;2.87;;;9.10;99.90;;;;;;5008238;28;20324;-50
2021/01/20 12:21:14;;;;;;;4.10;3.30;;;9.20;99.90;;;;;;5007871;28;20653;-50
2021/01/20 12:23:42;;;;;;;5.00;3.30;;;9.20;99.90;;;;;;5007371;28;20632;-50
2021/01/20 12:26:09;;;;;;;4.50;3.13;;;9.20;99.90;;;;;;5007108;28;20332;-49
2021/01/20 12:28:37;;;;;;;4.00;3.23;;;9.20;99.90;;;;;;5010391;28;20239;-50
2021/01/20 12:31:04;;;;;;;5.50;4.07;;;9.20;99.90;;;;;;5007726;28;20330;-50
2021/01/20 12:33:31;;;;;;;3.43;3.13;;;9.20;99.90;;;;;;5007370;28;20538;-49
2021/01/20 12:35:59;;;;;;;3.40;3.10;;;9.20;99.90;;;;;;5004688;28;20279;-50
2021/01/20 12:38:27;;;;;;;3.47;3.03;;;9.20;99.90;;;;;;5005544;28;20719;-49
2021/01/20 12:40:54;;;;;;;3.20;2.90;;;9.20;99.90;;;;;;5017767;28;20282;-50
2021/01/20 12:43:21;;;;;;;3.07;2.80;;;9.30;99.90;;;;;;5026340;28;20240;-49
2021/01/20 12:45:49;;;;;;;3.97;3.00;;;9.30;99.90;;;;;;5006267;28;20333;-49
2021/01/20 12:48:16;;;;;;;4.17;3.10;;;9.40;99.90;;;;;;5007444;28;20764;-50
2021/01/20 12:50:44;;;;;;;3.83;2.90;;;9.30;99.90;;;;;;5007450;28;20715;-51
2021/01/20 12:53:11;;;;;;;3.30;3.00;;;9.30;99.90;;;;;;5006292;28;20261;-49
2021/01/20 12:55:39;;;;;;;5.27;3.33;;;9.30;99.90;;;;;;5006402;28;20299;-49
2021/01/20 12:58:07;;;;;;;3.20;2.70;;;9.20;99.90;;;;;;5007395;28;20256;-49
2021/01/20 13:00:34;;;;;;;4.50;3.33;;;9.20;99.90;;;;;;5006580;28;20647;-49
2021/01/20 13:03:01;;;;;;;3.60;3.00;;;9.20;99.90;;;;;;5005644;28;20237;-50